createdAt,value
2018-09-29T00:00:17.380Z,7.70
2018-09-29T00:02:45.174Z,8.57
2018-09-29T00:05:13.984Z,5.87
2018-09-29T00:07:41.773Z,5.23
2018-09-29T00:10:09.651Z,8.57
2018-09-29T00:12:37.433Z,3.23
2018-09-29T00:15:05.701Z,6.90
2018-09-29T00:17:33.513Z,7.33
2018-09-29T00:20:01.339Z,7.73
2018-09-29T00:22:29.170Z,5.77
2018-09-29T00:24:57.034Z,6.20
2018-09-29T00:27:24.874Z,5.57
2018-09-29T00:29:52.732Z,5.70
2018-09-29T00:32:20.537Z,4.50
2018-09-29T00:34:48.402Z,5.50
2018-09-29T00:37:16.232Z,7.60
2018-09-29T00:39:44.054Z,4.07
2018-09-29T00:42:11.877Z,5.23
2018-09-29T00:44:39.717Z,6.20
2018-09-29T00:47:07.553Z,7.17
2018-09-29T00:49:35.365Z,12.20
2018-09-29T00:52:03.180Z,4.03
2018-09-29T00:54:52.851Z,4.63
2018-09-29T01:05:20.541Z,7.07
2018-09-29T01:07:48.396Z,8.40
2018-09-29T01:10:16.219Z,7.40
2018-09-29T01:12:45.440Z,10.43
2018-09-29T01:15:13.274Z,8.40
2018-09-29T01:17:41.107Z,8.27
2018-09-29T01:20:08.943Z,10.30
2018-09-29T01:22:36.770Z,10.90
2018-09-29T01:25:04.731Z,11.93
2018-09-29T01:27:33.542Z,11.73
2018-09-29T01:30:01.413Z,9.00
2018-09-29T01:32:29.303Z,14.63
2018-09-29T01:34:58.156Z,8.47
2018-09-29T01:37:26.002Z,13.73
2018-09-29T01:39:53.881Z,15.00
2018-09-29T01:42:21.716Z,12.50
2018-09-29T01:44:49.518Z,14.27
2018-09-29T01:47:17.429Z,14.27
2018-09-29T01:49:45.320Z,12.53
2018-09-29T01:52:13.174Z,14.93
2018-09-29T01:54:41.012Z,10.97
2018-09-29T01:57:30.407Z,12.33
2018-09-29T01:59:58.277Z,16.83
2018-09-29T02:05:36.690Z,24.10
2018-09-29T02:10:33.859Z,17.20
2018-09-29T02:13:01.825Z,17.90
2018-09-29T02:15:29.927Z,19.07
2018-09-29T02:17:57.780Z,18.47
2018-09-29T02:20:25.789Z,20.47
2018-09-29T02:22:53.717Z,14.07
2018-09-29T02:25:21.611Z,16.53
2018-09-29T02:27:57.048Z,21.17
2018-09-29T02:30:24.866Z,16.37
2018-09-29T02:32:52.661Z,15.70
2018-09-29T02:35:20.535Z,18.93
2018-09-29T02:37:48.349Z,25.03
2018-09-29T02:40:16.240Z,19.10
2018-09-29T02:42:44.069Z,20.37
2018-09-29T02:45:11.901Z,23.03
2018-09-29T02:47:39.712Z,17.87
2018-09-29T02:50:07.522Z,20.57
2018-09-29T02:52:36.371Z,27.00
2018-09-29T02:55:04.623Z,27.47
2018-09-29T02:57:32.417Z,27.43
2018-09-29T03:00:01.233Z,16.67
2018-09-29T03:02:29.062Z,24.40
2018-09-29T03:04:56.895Z,21.77
2018-09-29T03:07:24.701Z,25.97
2018-09-29T03:09:52.495Z,19.47
2018-09-29T03:12:20.286Z,32.03
2018-09-29T03:14:48.069Z,27.13
2018-09-29T03:17:15.857Z,24.07
2018-09-29T03:19:43.669Z,24.67
2018-09-29T03:22:11.479Z,23.10
2018-09-29T03:24:39.280Z,31.80
2018-09-29T03:27:07.076Z,26.30
2018-09-29T03:29:34.897Z,24.90
2018-09-29T03:32:02.681Z,29.20
2018-09-29T03:34:30.512Z,38.17
2018-09-29T03:36:58.322Z,35.70
2018-09-29T03:39:26.137Z,33.50
2018-09-29T03:41:53.939Z,37.70
2018-09-29T03:44:21.737Z,37.27
2018-09-29T03:46:49.602Z,40.70
2018-09-29T03:49:17.403Z,35.97
2018-09-29T03:51:45.296Z,33.17
2018-09-29T03:54:13.233Z,25.47
2018-09-29T03:57:29.035Z,30.93
2018-09-29T03:59:56.865Z,32.67
2018-09-29T04:02:24.790Z,29.37
2018-09-29T04:05:12.565Z,31.63
2018-09-29T04:07:40.624Z,19.20
2018-09-29T04:10:32.353Z,31.23
2018-09-29T04:13:00.240Z,32.07
2018-09-29T04:15:28.236Z,24.33
2018-09-29T04:18:22.029Z,30.87
2018-09-29T04:20:49.934Z,29.83
2018-09-29T04:23:17.781Z,27.77
2018-09-29T04:25:45.590Z,38.90
2018-09-29T04:28:13.468Z,25.27
2018-09-29T04:30:42.286Z,28.73
2018-09-29T04:33:10.153Z,27.57
2018-09-29T04:35:39.051Z,34.50
2018-09-29T04:38:06.972Z,34.67
2018-09-29T04:40:34.787Z,25.80
2018-09-29T04:43:02.608Z,40.70
2018-09-29T04:45:30.450Z,35.87
2018-09-29T04:47:58.279Z,43.33
2018-09-29T04:50:27.111Z,32.67
2018-09-29T04:52:54.970Z,26.93
2018-09-29T04:55:22.752Z,41.43
2018-09-29T04:57:50.663Z,33.27
2018-09-29T05:00:18.434Z,34.70
2018-09-29T05:02:46.812Z,28.37
2018-09-29T05:05:15.185Z,27.50
2018-09-29T05:07:43.020Z,23.37
2018-09-29T05:10:12.618Z,28.03
2018-09-29T05:12:40.497Z,26.70
2018-09-29T05:15:08.333Z,29.87
2018-09-29T05:17:37.215Z,27.17
2018-09-29T05:20:05.308Z,22.27
2018-09-29T05:22:33.185Z,26.97
2018-09-29T05:25:01.011Z,35.00
2018-09-29T05:27:28.885Z,28.70
2018-09-29T05:29:56.752Z,29.07
2018-09-29T05:32:24.650Z,45.90
2018-09-29T05:34:52.563Z,27.60
2018-09-29T05:37:20.439Z,34.63
2018-09-29T05:39:48.287Z,38.60
2018-09-29T05:42:16.177Z,41.73
2018-09-29T05:44:43.977Z,53.20
2018-09-29T05:47:13.818Z,57.27
2018-09-29T05:49:41.628Z,38.60
2018-09-29T05:52:09.475Z,55.70
2018-09-29T05:54:37.330Z,59.33
2018-09-29T05:57:06.202Z,52.37
2018-09-29T05:59:34.060Z,44.50
2018-09-29T06:02:01.920Z,60.67
2018-09-29T06:04:29.864Z,53.83
2018-09-29T06:06:57.728Z,56.77
2018-09-29T06:09:25.553Z,45.10
2018-09-29T06:11:53.493Z,66.53
2018-09-29T06:14:21.312Z,51.07
2018-09-29T06:16:49.216Z,40.37
2018-09-29T06:19:17.127Z,46.63
2018-09-29T06:21:45.966Z,53.23
2018-09-29T06:24:13.779Z,50.90
2018-09-29T06:26:41.671Z,66.63
2018-09-29T06:29:10.524Z,63.03
2018-09-29T06:31:40.297Z,39.43
2018-09-29T06:34:09.145Z,37.53
2018-09-29T06:36:36.950Z,27.63
2018-09-29T06:39:07.064Z,25.60
2018-09-29T06:41:34.920Z,22.20
2018-09-29T06:44:02.739Z,17.17
2018-09-29T06:46:30.529Z,24.17
2018-09-29T06:48:58.360Z,13.53
2018-09-29T06:51:26.180Z,13.00
2018-09-29T06:53:54.003Z,11.57
2018-09-29T06:56:22.827Z,13.60
2018-09-29T06:58:50.704Z,11.80
2018-09-29T07:01:19.553Z,16.77
2018-09-29T07:03:47.475Z,16.60
2018-09-29T07:06:15.343Z,12.40
2018-09-29T07:08:43.215Z,12.20
2018-09-29T07:11:12.066Z,16.80
2018-09-29T07:13:39.852Z,5.03
2018-09-29T07:16:09.744Z,6.77
2018-09-29T07:18:37.543Z,11.37
2018-09-29T07:21:05.334Z,12.97
2018-09-29T07:23:33.186Z,13.27
2018-09-29T07:26:01.014Z,8.17
2018-09-29T07:28:29.840Z,9.30
2018-09-29T07:30:57.629Z,6.23
2018-09-29T07:33:25.526Z,9.20
2018-09-29T07:35:53.321Z,8.20
2018-09-29T07:38:21.164Z,3.23
2018-09-29T07:40:49.020Z,7.53
2018-09-29T07:43:16.862Z,7.60
2018-09-29T07:45:44.746Z,6.30
2018-09-29T07:48:12.581Z,6.80
2018-09-29T07:50:40.425Z,8.73
2018-09-29T07:53:08.303Z,6.13
2018-09-29T07:55:36.120Z,6.50
2018-09-29T07:58:03.943Z,6.80
2018-09-29T08:00:31.805Z,10.10
2018-09-29T08:02:59.636Z,10.63
2018-09-29T08:05:27.481Z,6.07
2018-09-29T08:07:55.314Z,14.50
2018-09-29T08:10:23.179Z,11.97
2018-09-29T08:12:51.041Z,9.80
2018-09-29T08:15:18.865Z,5.77
2018-09-29T08:17:46.748Z,7.90
2018-09-29T08:20:14.592Z,8.30
2018-09-29T08:22:46.240Z,10.10
2018-09-29T08:25:14.081Z,8.23
2018-09-29T08:27:41.948Z,6.60
2018-09-29T08:30:09.791Z,13.27
2018-09-29T08:32:37.610Z,6.40
2018-09-29T08:35:05.434Z,8.60
2018-09-29T08:37:33.293Z,10.43
2018-09-29T08:40:01.147Z,12.50
2018-09-29T08:42:28.973Z,11.73
2018-09-29T08:44:56.791Z,11.77
2018-09-29T08:47:24.645Z,11.37
2018-09-29T08:49:52.474Z,5.30
2018-09-29T08:52:20.296Z,9.60
2018-09-29T08:54:48.138Z,10.10
2018-09-29T08:57:16.009Z,8.13
2018-09-29T08:59:43.824Z,9.80
2018-09-29T09:02:11.673Z,7.70
2018-09-29T09:04:39.499Z,7.97
2018-09-29T09:07:07.305Z,8.07
2018-09-29T09:09:35.277Z,6.10
2018-09-29T09:12:03.064Z,6.45
2018-09-29T09:14:30.928Z,5.80
2018-09-29T09:16:58.836Z,5.43
2018-09-29T09:19:26.638Z,4.70
2018-09-29T09:21:54.513Z,5.73
2018-09-29T09:24:22.348Z,9.35
2018-09-29T09:26:51.152Z,8.65
2018-09-29T09:29:18.977Z,5.15
2018-09-29T09:31:46.901Z,5.42
2018-09-29T09:34:14.724Z,8.53
2018-09-29T09:36:42.597Z,9.33
2018-09-29T09:39:11.227Z,10.48
2018-09-29T09:41:39.436Z,3.22
2018-09-29T09:44:07.718Z,10.70
2018-09-29T09:46:35.720Z,10.35
2018-09-29T09:49:03.730Z,8.13
2018-09-29T09:51:31.888Z,7.55
2018-09-29T09:53:59.945Z,8.05
2018-09-29T09:56:28.078Z,5.45
2018-09-29T09:58:56.093Z,5.73
2018-09-29T10:01:29.545Z,4.85
2018-09-29T10:03:57.683Z,10.85
2018-09-29T10:06:25.782Z,5.20
2018-09-29T10:08:53.713Z,9.30
2018-09-29T10:11:21.696Z,4.10
2018-09-29T10:13:49.717Z,3.12
2018-09-29T10:16:17.740Z,3.40
2018-09-29T10:18:45.965Z,5.10
2018-09-29T10:21:14.052Z,3.77
2018-09-29T10:23:42.018Z,2.58
2018-09-29T10:26:10.005Z,4.17
2018-09-29T10:28:38.037Z,5.65
2018-09-29T10:31:06.194Z,8.83
2018-09-29T10:33:34.122Z,7.87
2018-09-29T10:36:02.090Z,4.08
2018-09-29T10:38:30.083Z,7.10
2018-09-29T10:43:40.867Z,9.78
2018-09-29T10:46:08.758Z,4.78
2018-09-29T10:48:36.570Z,6.17
2018-09-29T10:51:04.371Z,5.97
2018-09-29T10:53:37.713Z,6.50
2018-09-29T10:56:05.713Z,6.35
2018-09-29T10:58:33.707Z,6.67
2018-09-29T11:01:01.689Z,3.65
2018-09-29T11:03:29.660Z,5.78
2018-09-29T11:05:57.720Z,4.12
2018-09-29T11:08:25.664Z,2.15
2018-09-29T11:10:53.787Z,6.50
2018-09-29T11:13:21.762Z,7.12
2018-09-29T11:15:49.829Z,8.48
2018-09-29T11:18:17.824Z,5.78
2018-09-29T11:20:45.891Z,5.55
2018-09-29T11:23:13.943Z,6.00
2018-09-29T11:25:42.011Z,6.00
2018-09-29T11:28:10.060Z,6.78
2018-09-29T11:30:38.039Z,5.97
2018-09-29T11:33:06.040Z,2.42
2018-09-29T11:35:34.083Z,4.78
2018-09-29T11:38:02.151Z,2.98
2018-09-29T11:40:30.307Z,5.25
2018-09-29T11:42:58.448Z,3.67
2018-09-29T11:45:27.277Z,4.42
2018-09-29T11:47:55.284Z,5.05
2018-09-29T11:50:23.331Z,6.42
2018-09-29T11:52:51.433Z,5.90
2018-09-29T11:55:19.349Z,8.43
2018-09-29T11:57:47.234Z,4.92
2018-09-29T12:00:15.116Z,4.37
2018-09-29T12:02:44.041Z,3.52
2018-09-29T12:05:12.001Z,6.78
2018-09-29T12:07:40.077Z,5.35
2018-09-29T12:10:07.817Z,5.22
2018-09-29T12:12:35.838Z,7.00
2018-09-29T12:15:03.785Z,2.70
2018-09-29T12:17:31.715Z,3.98
2018-09-29T12:19:59.549Z,3.12
2018-09-29T12:22:27.536Z,5.22
2018-09-29T12:24:55.362Z,2.60
2018-09-29T12:27:24.920Z,3.17
2018-09-29T12:29:51.160Z,2.17
2018-09-29T12:32:20.151Z,4.25
2018-09-29T12:34:49.163Z,3.05
2018-09-29T12:37:17.206Z,5.35
2018-09-29T12:39:44.989Z,5.47
2018-09-29T12:42:12.828Z,5.42
2018-09-29T12:44:40.717Z,3.87
2018-09-29T12:47:08.628Z,4.15
2018-09-29T12:49:36.517Z,2.72
2018-09-29T12:52:15.675Z,5.55
2018-09-29T12:54:43.595Z,4.12
2018-09-29T13:00:04.514Z,3.27
2018-09-29T13:02:32.540Z,4.33
2018-09-29T13:05:00.524Z,3.70
2018-09-29T13:07:28.595Z,3.37
2018-09-29T13:09:56.560Z,5.62
2018-09-29T13:12:24.463Z,5.65
2018-09-29T13:14:52.388Z,6.67
2018-09-29T13:17:20.305Z,5.75
2018-09-29T13:19:48.275Z,4.55
2018-09-29T13:22:16.271Z,6.12
2018-09-29T13:24:44.233Z,4.65
2018-09-29T13:27:13.206Z,3.98
2018-09-29T13:29:41.184Z,6.28
2018-09-29T13:32:09.172Z,3.67
2018-09-29T13:34:37.118Z,7.80
2018-09-29T13:37:05.152Z,3.15
2018-09-29T13:39:33.058Z,4.80
2018-09-29T13:42:01.072Z,5.67
2018-09-29T13:44:29.050Z,2.30
2018-09-29T13:46:57.124Z,4.83
2018-09-29T13:49:25.095Z,3.00
2018-09-29T13:51:53.165Z,3.42
2018-09-29T13:54:21.204Z,3.33
2018-09-29T13:56:49.166Z,2.83
2018-09-29T13:59:17.136Z,6.28
2018-09-29T14:01:45.097Z,9.28
2018-09-29T14:04:12.987Z,5.92
2018-09-29T14:06:40.865Z,8.10
2018-09-29T14:09:09.506Z,5.47
2018-09-29T14:11:37.462Z,7.87
2018-09-29T14:14:06.577Z,6.30
2018-09-29T14:16:34.371Z,5.67
2018-09-29T14:19:02.177Z,8.08
2018-09-29T14:21:30.110Z,3.47
2018-09-29T14:23:57.958Z,6.00
2018-09-29T14:29:05.356Z,5.78
2018-09-29T14:31:33.253Z,7.72
2018-09-29T14:34:01.135Z,5.60
2018-09-29T14:36:29.030Z,5.85
2018-09-29T14:38:58.359Z,5.83
2018-09-29T14:41:26.218Z,7.12
2018-09-29T14:43:55.086Z,4.53
2018-09-29T14:46:22.928Z,4.45
2018-09-29T14:48:50.805Z,9.48
2018-09-29T14:51:18.767Z,5.15
2018-09-29T14:53:46.719Z,5.60
2018-09-29T14:56:14.586Z,7.90
2018-09-29T14:58:42.538Z,5.92
2018-09-29T15:01:10.419Z,7.05
2018-09-29T15:03:38.255Z,7.22
2018-09-29T15:06:07.133Z,5.75
2018-09-29T15:08:35.024Z,7.15
2018-09-29T15:11:02.912Z,6.65
2018-09-29T15:13:30.834Z,9.65
2018-09-29T15:15:58.816Z,6.12
2018-09-29T15:18:26.729Z,7.28
2018-09-29T15:20:55.680Z,9.05
2018-09-29T15:23:23.603Z,13.08
2018-09-29T15:25:52.559Z,4.75
2018-09-29T15:28:20.479Z,3.40
2018-09-29T15:30:48.457Z,6.53
2018-09-29T15:33:16.345Z,9.18
2018-09-29T15:35:44.306Z,4.60
2018-09-29T15:38:12.194Z,3.12
2018-09-29T15:40:40.328Z,3.87
2018-09-29T15:43:08.275Z,5.92
2018-09-29T15:45:36.431Z,4.47
2018-09-29T15:48:04.466Z,7.03
2018-09-29T15:50:32.509Z,4.67
2018-09-29T15:53:00.453Z,5.62
2018-09-29T15:55:28.455Z,3.25
2018-09-29T15:57:56.616Z,6.28
2018-09-29T16:00:25.366Z,5.37
2018-09-29T16:02:54.093Z,6.90
2018-09-29T16:05:22.154Z,8.98
2018-09-29T16:07:50.147Z,6.17
2018-09-29T16:10:19.064Z,5.95
2018-09-29T16:12:47.030Z,4.72
2018-09-29T16:15:15.001Z,5.35
2018-09-29T16:17:42.926Z,3.00
2018-09-29T16:20:12.867Z,9.83
2018-09-29T16:22:40.866Z,3.50
2018-09-29T16:25:08.875Z,6.10
2018-09-29T16:27:36.811Z,8.13
2018-09-29T16:30:04.793Z,8.88
2018-09-29T16:32:33.431Z,3.58
2018-09-29T16:35:02.115Z,11.12
2018-09-29T16:37:30.825Z,8.30
2018-09-29T16:39:58.905Z,5.33
2018-09-29T16:42:26.809Z,6.22
2018-09-29T16:44:54.729Z,5.33
2018-09-29T16:47:22.703Z,7.12
2018-09-29T16:49:50.567Z,4.17
2018-09-29T16:52:18.530Z,29.72
2018-09-29T16:54:46.363Z,7.65
2018-09-29T16:57:14.220Z,12.63
2018-09-29T16:59:42.062Z,5.33
2018-09-29T17:02:09.931Z,5.17
2018-09-29T17:04:37.826Z,4.28
2018-09-29T17:07:05.654Z,8.70
2018-09-29T17:09:33.583Z,8.17
2018-09-29T17:12:01.445Z,4.43
2018-09-29T17:14:31.313Z,5.77
2018-09-29T17:19:49.002Z,9.30
2018-09-29T17:22:17.003Z,4.03
2018-09-29T17:24:44.927Z,5.77
2018-09-29T17:27:12.787Z,6.73
2018-09-29T17:29:40.661Z,9.67
2018-09-29T17:32:08.558Z,9.13
2018-09-29T17:34:36.427Z,8.27
2018-09-29T17:37:04.323Z,6.13
2018-09-29T17:39:32.174Z,6.40
2018-09-29T17:42:00.082Z,9.33
2018-09-29T17:44:27.919Z,1.77
2018-09-29T17:46:55.742Z,5.63
2018-09-29T17:49:23.635Z,7.63
2018-09-29T17:51:51.461Z,5.07
2018-09-29T17:54:19.341Z,8.83
2018-09-29T17:56:47.163Z,6.33
2018-09-29T17:59:15.031Z,16.80
2018-09-29T18:01:42.882Z,5.23
2018-09-29T18:04:10.802Z,7.80
2018-09-29T18:06:38.569Z,15.17
2018-09-29T18:09:08.001Z,8.93
2018-09-29T18:11:35.846Z,7.60
2018-09-29T18:14:03.787Z,7.10
2018-09-29T18:16:32.659Z,10.73
2018-09-29T18:19:00.504Z,10.20
2018-09-29T18:21:28.446Z,23.57
2018-09-29T18:23:56.236Z,9.57
2018-09-29T18:26:24.051Z,11.70
2018-09-29T18:28:51.855Z,5.53
2018-09-29T18:31:19.736Z,11.43
2018-09-29T18:33:47.584Z,12.83
2018-09-29T18:36:15.402Z,12.53
2018-09-29T18:38:43.256Z,6.03
2018-09-29T18:41:11.025Z,8.33
2018-09-29T18:43:38.838Z,11.27
2018-09-29T18:46:06.728Z,10.70
2018-09-29T18:48:34.568Z,7.37
2018-09-29T18:51:02.438Z,10.63
2018-09-29T18:53:30.297Z,17.83
2018-09-29T18:55:59.141Z,9.33
2018-09-29T18:58:26.990Z,6.97
2018-09-29T19:00:54.840Z,7.60
2018-09-29T19:03:22.733Z,9.73
2018-09-29T19:05:50.611Z,6.73
2018-09-29T19:08:18.454Z,10.27
2018-09-29T19:10:46.325Z,9.87
2018-09-29T19:13:14.161Z,18.17
2018-09-29T19:15:42.065Z,11.07
2018-09-29T19:18:10.038Z,15.03
2018-09-29T19:20:37.878Z,12.40
2018-09-29T19:23:06.769Z,11.47
2018-09-29T19:25:34.613Z,7.77
2018-09-29T19:28:03.497Z,10.40
2018-09-29T19:30:31.375Z,17.37
2018-09-29T19:32:59.288Z,7.23
2018-09-29T19:35:27.399Z,7.80
2018-09-29T19:37:55.281Z,13.33
2018-09-29T19:40:23.147Z,12.27
2018-09-29T19:42:51.007Z,8.27
2018-09-29T19:45:18.895Z,14.60
2018-09-29T19:47:46.740Z,13.50
2018-09-29T19:50:14.626Z,16.07
2018-09-29T19:52:42.433Z,15.57
2018-09-29T19:55:10.335Z,22.97
2018-09-29T19:57:38.212Z,16.17
2018-09-29T20:00:06.372Z,10.23
2018-09-29T20:02:34.201Z,8.77
2018-09-29T20:05:02.239Z,9.77
2018-09-29T20:07:30.139Z,12.13
2018-09-29T20:09:57.964Z,11.17
2018-09-29T20:12:25.849Z,13.23
2018-09-29T20:14:55.857Z,12.03
2018-09-29T20:17:23.663Z,8.83
2018-09-29T20:19:51.615Z,10.93
2018-09-29T20:22:19.422Z,13.63
2018-09-29T20:24:47.409Z,11.60
2018-09-29T20:27:15.261Z,12.13
2018-09-29T20:29:44.273Z,11.07
2018-09-29T20:32:12.155Z,12.50
2018-09-29T20:34:40.018Z,12.53
2018-09-29T20:37:07.890Z,15.63
2018-09-29T20:39:36.777Z,19.23
2018-09-29T20:42:04.741Z,14.10
2018-09-29T20:44:32.636Z,12.93
2018-09-29T20:47:00.473Z,23.00
2018-09-29T20:49:28.341Z,16.70
2018-09-29T20:51:56.209Z,26.47
2018-09-29T20:54:24.002Z,20.73
2018-09-29T20:56:52.882Z,18.07
2018-09-29T20:59:20.720Z,26.87
2018-09-29T21:01:48.555Z,22.03
2018-09-29T21:04:16.469Z,17.87
2018-09-29T21:06:44.399Z,25.87
2018-09-29T21:09:12.258Z,19.03
2018-09-29T21:11:40.117Z,24.17
2018-09-29T21:14:08.023Z,22.63
2018-09-29T21:16:35.874Z,26.97
2018-09-29T21:19:03.780Z,30.43
2018-09-29T21:21:31.588Z,39.70
2018-09-29T21:23:59.456Z,31.47
2018-09-29T21:26:27.248Z,29.63
2018-09-29T21:28:55.081Z,41.10
2018-09-29T21:31:22.908Z,26.43
2018-09-29T21:33:50.740Z,30.17
2018-09-29T21:36:18.577Z,37.30
2018-09-29T21:38:47.394Z,35.57
2018-09-29T21:41:15.188Z,33.10
2018-09-29T21:43:43.091Z,36.50
2018-09-29T21:46:10.966Z,40.87
2018-09-29T21:48:39.786Z,34.87
2018-09-29T21:51:07.622Z,37.43
2018-09-29T21:53:35.444Z,35.13
2018-09-29T21:56:03.301Z,34.67
2018-09-29T21:58:31.109Z,32.43
2018-09-29T22:01:04.497Z,32.73
2018-09-29T22:03:32.346Z,39.77
2018-09-29T22:06:00.180Z,39.50
2018-09-29T22:08:28.010Z,32.07
2018-09-29T22:10:55.896Z,48.33
2018-09-29T22:13:23.742Z,39.13
2018-09-29T22:15:51.604Z,46.43
2018-09-29T22:18:19.415Z,45.67
2018-09-29T22:20:47.267Z,39.80
2018-09-29T22:23:15.092Z,49.00
2018-09-29T22:25:42.940Z,42.67
2018-09-29T22:28:10.793Z,43.47
2018-09-29T22:30:38.679Z,44.93
2018-09-29T22:33:06.838Z,47.00
2018-09-29T22:35:34.662Z,43.73
2018-09-29T22:38:02.463Z,45.67
2018-09-29T22:40:30.374Z,40.60
2018-09-29T22:42:58.174Z,41.57
2018-09-29T22:45:26.010Z,56.90
2018-09-29T22:47:53.846Z,45.60
2018-09-29T22:50:21.689Z,51.80
2018-09-29T22:52:49.558Z,46.67
2018-09-29T22:55:17.412Z,47.87
2018-09-29T22:57:45.235Z,48.07
2018-09-29T23:00:14.074Z,52.80
2018-09-29T23:02:41.893Z,57.60
2018-09-29T23:05:10.721Z,69.80
2018-09-29T23:07:38.595Z,57.63
2018-09-29T23:10:06.522Z,61.80
2018-09-29T23:12:34.340Z,56.00
2018-09-29T23:15:02.252Z,59.10
2018-09-29T23:17:30.109Z,52.57
2018-09-29T23:19:57.974Z,53.23
2018-09-29T23:22:27.842Z,58.70
2018-09-29T23:24:55.685Z,59.40
2018-09-29T23:27:23.566Z,62.93
2018-09-29T23:29:51.412Z,66.93
2018-09-29T23:32:19.293Z,121.97
2018-09-29T23:34:47.154Z,95.20
2018-09-29T23:37:15.124Z,70.80
2018-09-29T23:39:42.930Z,61.60
2018-09-29T23:42:10.777Z,60.20
2018-09-29T23:44:38.559Z,48.53
2018-09-29T23:47:06.458Z,50.60
2018-09-29T23:49:34.262Z,52.07
2018-09-29T23:52:02.085Z,54.10
2018-09-29T23:54:29.969Z,55.63
2018-09-29T23:56:57.770Z,57.87
2018-09-29T23:59:25.828Z,59.37
